sensor_id;sensor_type;location;lat;lon;timestamp;P1;durP1;ratioP1;P2;durP2;ratioP2
37781;SDS011;23621;50.878;4.584;2023-05-23T08:50:59;11.23;;;7.57;;
37781;SDS011;23621;50.878;4.584;2023-05-23T08:53:48;12.95;;;6.82;;
37781;SDS011;23621;50.878;4.584;2023-05-23T08:56:38;12.15;;;6.80;;
37781;SDS011;23621;50.878;4.584;2023-05-23T08:59:26;13.63;;;7.20;;
37781;SDS011;23621;50.878;4.584;2023-05-23T09:02:16;12.52;;;7.20;;
37781;SDS011;23621;50.878;4.584;2023-05-23T09:05:04;11.00;;;6.57;;
37781;SDS011;23621;50.878;4.584;2023-05-23T09:07:51;12.80;;;6.80;;
37781;SDS011;23621;50.878;4.584;2023-05-23T09:10:39;9.75;;;6.55;;
37781;SDS011;23621;50.878;4.584;2023-05-23T09:13:28;10.30;;;5.88;;
37781;SDS011;23621;50.878;4.584;2023-05-23T09:16:18;9.68;;;6.25;;
37781;SDS011;23621;50.878;4.584;2023-05-23T09:19:09;11.38;;;5.85;;
37781;SDS011;23621;50.878;4.584;2023-05-23T09:21:57;10.85;;;5.90;;
37781;SDS011;23621;50.878;4.584;2023-05-23T09:24:49;10.30;;;6.53;;
37781;SDS011;23621;50.878;4.584;2023-05-23T09:27:38;10.82;;;6.47;;
37781;SDS011;23621;50.878;4.584;2023-05-23T09:30:26;11.30;;;6.38;;
37781;SDS011;23621;50.878;4.584;2023-05-23T09:33:13;11.48;;;5.78;;
37781;SDS011;23621;50.878;4.584;2023-05-23T09:36:02;7.97;;;5.32;;
37781;SDS011;23621;50.878;4.584;2023-05-23T09:38:49;10.30;;;5.15;;
37781;SDS011;23621;50.878;4.584;2023-05-23T09:41:38;8.57;;;5.10;;
37781;SDS011;23621;50.878;4.584;2023-05-23T09:44:25;9.35;;;5.03;;
37781;SDS011;23621;50.878;4.584;2023-05-23T09:47:14;8.95;;;4.85;;
37781;SDS011;23621;50.878;4.584;2023-05-23T09:50:02;7.45;;;4.72;;
37781;SDS011;23621;50.878;4.584;2023-05-23T09:52:49;7.25;;;4.57;;
37781;SDS011;23621;50.878;4.584;2023-05-23T09:55:39;8.50;;;4.25;;
37781;SDS011;23621;50.878;4.584;2023-05-23T09:58:27;8.13;;;4.43;;
37781;SDS011;23621;50.878;4.584;2023-05-23T10:01:15;7.18;;;4.55;;
37781;SDS011;23621;50.878;4.584;2023-05-23T10:04:04;9.50;;;5.45;;
37781;SDS011;23621;50.878;4.584;2023-05-23T10:06:53;7.03;;;4.53;;
37781;SDS011;23621;50.878;4.584;2023-05-23T10:09:51;6.32;;;4.35;;
37781;SDS011;23621;50.878;4.584;2023-05-23T10:12:48;7.68;;;4.72;;
37781;SDS011;23621;50.878;4.584;2023-05-23T10:15:39;8.32;;;4.13;;
37781;SDS011;23621;50.878;4.584;2023-05-23T10:18:28;7.07;;;4.50;;
37781;SDS011;23621;50.878;4.584;2023-05-23T10:21:23;7.13;;;4.50;;
37781;SDS011;23621;50.878;4.584;2023-05-23T10:24:19;8.40;;;4.85;;
37781;SDS011;23621;50.878;4.584;2023-05-23T10:27:07;5.80;;;4.07;;
37781;SDS011;23621;50.878;4.584;2023-05-23T10:29:55;7.13;;;4.63;;
37781;SDS011;23621;50.878;4.584;2023-05-23T10:32:44;6.13;;;4.72;;
37781;SDS011;23621;50.878;4.584;2023-05-23T10:38:57;8.38;;;4.53;;
37781;SDS011;23621;50.878;4.584;2023-05-23T10:41:53;6.68;;;3.83;;
37781;SDS011;23621;50.878;4.584;2023-05-23T10:48:00;7.88;;;4.03;;
37781;SDS011;23621;50.878;4.584;2023-05-23T10:51:00;6.63;;;4.10;;
37781;SDS011;23621;50.878;4.584;2023-05-23T10:53:52;8.07;;;3.90;;
37781;SDS011;23621;50.878;4.584;2023-05-23T10:56:40;5.65;;;3.90;;
37781;SDS011;23621;50.878;4.584;2023-05-23T10:59:27;5.18;;;4.03;;
37781;SDS011;23621;50.878;4.584;2023-05-23T11:02:15;5.93;;;3.83;;
37781;SDS011;23621;50.878;4.584;2023-05-23T11:05:21;5.03;;;3.92;;
37781;SDS011;23621;50.878;4.584;2023-05-23T11:08:13;5.30;;;4.28;;
37781;SDS011;23621;50.878;4.584;2023-05-23T11:11:01;7.25;;;4.20;;
37781;SDS011;23621;50.878;4.584;2023-05-23T11:16:41;6.47;;;4.00;;
37781;SDS011;23621;50.878;4.584;2023-05-23T11:19:31;6.18;;;4.10;;
37781;SDS011;23621;50.878;4.584;2023-05-23T11:22:18;6.05;;;4.03;;
37781;SDS011;23621;50.878;4.584;2023-05-23T11:25:07;5.80;;;3.72;;
37781;SDS011;23621;50.878;4.584;2023-05-23T11:27:58;4.82;;;3.50;;
37781;SDS011;23621;50.878;4.584;2023-05-23T11:30:49;5.95;;;3.65;;
37781;SDS011;23621;50.878;4.584;2023-05-23T11:33:37;4.78;;;3.40;;
37781;SDS011;23621;50.878;4.584;2023-05-23T11:36:24;5.63;;;3.80;;
37781;SDS011;23621;50.878;4.584;2023-05-23T11:39:13;4.97;;;3.55;;
37781;SDS011;23621;50.878;4.584;2023-05-23T11:42:01;6.75;;;3.75;;
37781;SDS011;23621;50.878;4.584;2023-05-23T11:44:50;6.97;;;3.70;;
37781;SDS011;23621;50.878;4.584;2023-05-23T11:47:41;5.03;;;3.72;;
37781;SDS011;23621;50.878;4.584;2023-05-23T11:50:28;5.32;;;3.40;;
37781;SDS011;23621;50.878;4.584;2023-05-23T11:53:16;7.45;;;4.30;;
37781;SDS011;23621;50.878;4.584;2023-05-23T11:56:06;5.95;;;3.28;;
37781;SDS011;23621;50.878;4.584;2023-05-23T11:58:54;6.85;;;3.00;;
37781;SDS011;23621;50.878;4.584;2023-05-23T12:01:43;7.35;;;3.50;;
37781;SDS011;23621;50.878;4.584;2023-05-23T12:04:30;5.55;;;3.40;;
37781;SDS011;23621;50.878;4.584;2023-05-23T12:07:19;8.88;;;3.75;;
37781;SDS011;23621;50.878;4.584;2023-05-23T12:10:10;10.63;;;3.38;;
37781;SDS011;23621;50.878;4.584;2023-05-23T12:12:58;7.35;;;3.42;;
37781;SDS011;23621;50.878;4.584;2023-05-23T12:15:46;7.30;;;3.60;;
37781;SDS011;23621;50.878;4.584;2023-05-23T12:18:38;9.73;;;3.50;;
37781;SDS011;23621;50.878;4.584;2023-05-23T12:21:25;5.90;;;3.50;;
37781;SDS011;23621;50.878;4.584;2023-05-23T12:24:26;6.80;;;3.65;;
37781;SDS011;23621;50.878;4.584;2023-05-23T12:27:14;8.93;;;3.60;;
37781;SDS011;23621;50.878;4.584;2023-05-23T12:30:12;7.00;;;3.75;;
37781;SDS011;23621;50.878;4.584;2023-05-23T12:33:01;7.32;;;3.47;;
37781;SDS011;23621;50.878;4.584;2023-05-23T12:35:54;9.88;;;3.70;;
37781;SDS011;23621;50.878;4.584;2023-05-23T12:38:42;7.28;;;3.50;;
37781;SDS011;23621;50.878;4.584;2023-05-23T12:41:34;8.40;;;4.25;;
37781;SDS011;23621;50.878;4.584;2023-05-23T12:44:21;7.85;;;3.58;;
37781;SDS011;23621;50.878;4.584;2023-05-23T12:47:09;7.03;;;3.63;;
37781;SDS011;23621;50.878;4.584;2023-05-23T12:49:56;10.45;;;4.13;;
37781;SDS011;23621;50.878;4.584;2023-05-23T12:52:44;6.70;;;3.83;;
37781;SDS011;23621;50.878;4.584;2023-05-23T12:55:31;10.55;;;4.03;;
37781;SDS011;23621;50.878;4.584;2023-05-23T12:58:19;9.35;;;4.10;;
37781;SDS011;23621;50.878;4.584;2023-05-23T13:01:06;10.40;;;3.95;;
37781;SDS011;23621;50.878;4.584;2023-05-23T13:03:54;10.23;;;4.40;;
37781;SDS011;23621;50.878;4.584;2023-05-23T13:06:41;8.38;;;4.00;;
37781;SDS011;23621;50.878;4.584;2023-05-23T13:09:29;10.55;;;3.92;;
37781;SDS011;23621;50.878;4.584;2023-05-23T13:12:16;8.38;;;3.70;;
37781;SDS011;23621;50.878;4.584;2023-05-23T13:15:04;9.98;;;3.65;;
37781;SDS011;23621;50.878;4.584;2023-05-23T13:17:52;10.68;;;4.18;;
37781;SDS011;23621;50.878;4.584;2023-05-23T13:20:39;8.85;;;4.20;;
37781;SDS011;23621;50.878;4.584;2023-05-23T13:23:28;9.00;;;3.80;;
37781;SDS011;23621;50.878;4.584;2023-05-23T13:26:16;8.43;;;3.70;;
37781;SDS011;23621;50.878;4.584;2023-05-23T13:29:04;10.57;;;4.43;;
37781;SDS011;23621;50.878;4.584;2023-05-23T13:31:51;13.73;;;4.35;;
37781;SDS011;23621;50.878;4.584;2023-05-23T13:34:39;10.52;;;4.80;;
37781;SDS011;23621;50.878;4.584;2023-05-23T13:37:27;9.75;;;3.95;;
37781;SDS011;23621;50.878;4.584;2023-05-23T13:40:18;9.30;;;3.72;;
37781;SDS011;23621;50.878;4.584;2023-05-23T13:43:06;10.30;;;3.80;;
37781;SDS011;23621;50.878;4.584;2023-05-23T13:45:54;10.45;;;4.53;;
37781;SDS011;23621;50.878;4.584;2023-05-23T13:48:41;10.38;;;3.72;;
37781;SDS011;23621;50.878;4.584;2023-05-23T13:51:29;9.10;;;3.90;;
37781;SDS011;23621;50.878;4.584;2023-05-23T13:54:18;8.80;;;4.00;;
37781;SDS011;23621;50.878;4.584;2023-05-23T13:57:05;14.40;;;3.90;;
37781;SDS011;23621;50.878;4.584;2023-05-23T13:59:52;9.13;;;3.88;;
37781;SDS011;23621;50.878;4.584;2023-05-23T14:02:39;13.82;;;4.65;;
37781;SDS011;23621;50.878;4.584;2023-05-23T14:05:27;9.90;;;4.10;;
37781;SDS011;23621;50.878;4.584;2023-05-23T14:08:14;12.20;;;3.95;;
37781;SDS011;23621;50.878;4.584;2023-05-23T14:11:02;8.93;;;3.50;;
37781;SDS011;23621;50.878;4.584;2023-05-23T14:17:51;8.23;;;3.88;;
37781;SDS011;23621;50.878;4.584;2023-05-23T14:20:41;12.32;;;3.80;;
37781;SDS011;23621;50.878;4.584;2023-05-23T14:23:28;7.43;;;3.60;;
37781;SDS011;23621;50.878;4.584;2023-05-23T14:26:18;10.80;;;4.10;;
37781;SDS011;23621;50.878;4.584;2023-05-23T14:29:05;9.55;;;3.20;;
37781;SDS011;23621;50.878;4.584;2023-05-23T14:31:52;11.73;;;4.07;;
37781;SDS011;23621;50.878;4.584;2023-05-23T14:34:40;8.38;;;3.40;;
37781;SDS011;23621;50.878;4.584;2023-05-23T14:37:27;9.57;;;3.55;;
37781;SDS011;23621;50.878;4.584;2023-05-23T14:40:14;6.57;;;3.38;;
37781;SDS011;23621;50.878;4.584;2023-05-23T14:43:02;7.68;;;3.80;;
37781;SDS011;23621;50.878;4.584;2023-05-23T14:45:49;9.57;;;3.50;;
37781;SDS011;23621;50.878;4.584;2023-05-23T14:48:37;6.30;;;3.00;;
37781;SDS011;23621;50.878;4.584;2023-05-23T14:51:24;11.63;;;4.10;;
37781;SDS011;23621;50.878;4.584;2023-05-23T14:54:31;10.48;;;3.65;;
37781;SDS011;23621;50.878;4.584;2023-05-23T14:57:19;7.90;;;3.47;;
37781;SDS011;23621;50.878;4.584;2023-05-23T15:00:07;10.82;;;3.22;;
37781;SDS011;23621;50.878;4.584;2023-05-23T15:02:55;10.32;;;3.55;;
37781;SDS011;23621;50.878;4.584;2023-05-23T15:05:43;9.68;;;3.50;;
37781;SDS011;23621;50.878;4.584;2023-05-23T15:08:34;8.73;;;3.42;;
37781;SDS011;23621;50.878;4.584;2023-05-23T15:11:22;11.27;;;3.72;;
37781;SDS011;23621;50.878;4.584;2023-05-23T15:14:13;10.60;;;3.75;;
37781;SDS011;23621;50.878;4.584;2023-05-23T15:17:00;7.82;;;3.17;;
37781;SDS011;23621;50.878;4.584;2023-05-23T15:19:53;8.18;;;3.67;;
37781;SDS011;23621;50.878;4.584;2023-05-23T15:22:42;7.95;;;3.42;;
37781;SDS011;23621;50.878;4.584;2023-05-23T15:25:30;11.90;;;3.63;;
37781;SDS011;23621;50.878;4.584;2023-05-23T15:28:34;10.55;;;3.53;;
37781;SDS011;23621;50.878;4.584;2023-05-23T15:31:22;5.70;;;2.83;;
37781;SDS011;23621;50.878;4.584;2023-05-23T15:34:09;7.43;;;3.15;;
37781;SDS011;23621;50.878;4.584;2023-05-23T15:36:57;9.63;;;3.35;;
37781;SDS011;23621;50.878;4.584;2023-05-23T15:39:44;8.60;;;3.15;;
37781;SDS011;23621;50.878;4.584;2023-05-23T15:42:31;7.28;;;3.15;;
37781;SDS011;23621;50.878;4.584;2023-05-23T15:45:18;5.65;;;2.92;;
37781;SDS011;23621;50.878;4.584;2023-05-23T15:48:06;8.10;;;3.30;;
37781;SDS011;23621;50.878;4.584;2023-05-23T15:50:53;8.98;;;3.35;;
37781;SDS011;23621;50.878;4.584;2023-05-23T15:53:40;8.50;;;3.40;;
37781;SDS011;23621;50.878;4.584;2023-05-23T15:56:46;8.85;;;3.67;;
37781;SDS011;23621;50.878;4.584;2023-05-23T15:59:34;8.90;;;3.33;;
37781;SDS011;23621;50.878;4.584;2023-05-23T16:02:22;6.88;;;3.45;;
37781;SDS011;23621;50.878;4.584;2023-05-23T16:05:10;5.85;;;3.00;;
37781;SDS011;23621;50.878;4.584;2023-05-23T16:07:57;8.57;;;3.25;;
37781;SDS011;23621;50.878;4.584;2023-05-23T16:10:44;7.72;;;3.30;;
37781;SDS011;23621;50.878;4.584;2023-05-23T16:13:32;9.20;;;3.63;;
37781;SDS011;23621;50.878;4.584;2023-05-23T16:16:19;11.55;;;3.17;;
37781;SDS011;23621;50.878;4.584;2023-05-23T16:19:06;7.82;;;3.53;;
37781;SDS011;23621;50.878;4.584;2023-05-23T16:21:53;7.38;;;3.00;;
37781;SDS011;23621;50.878;4.584;2023-05-23T16:24:41;8.38;;;3.35;;
37781;SDS011;23621;50.878;4.584;2023-05-23T16:27:28;5.50;;;2.70;;
37781;SDS011;23621;50.878;4.584;2023-05-23T16:30:16;9.23;;;3.13;;
37781;SDS011;23621;50.878;4.584;2023-05-23T16:33:03;6.47;;;3.25;;
37781;SDS011;23621;50.878;4.584;2023-05-23T16:35:50;8.30;;;3.00;;
37781;SDS011;23621;50.878;4.584;2023-05-23T16:38:38;7.25;;;3.05;;
37781;SDS011;23621;50.878;4.584;2023-05-23T16:41:25;8.73;;;2.95;;
37781;SDS011;23621;50.878;4.584;2023-05-23T16:44:13;9.02;;;3.08;;
37781;SDS011;23621;50.878;4.584;2023-05-23T16:47:01;8.98;;;3.42;;
37781;SDS011;23621;50.878;4.584;2023-05-23T16:49:48;5.80;;;3.03;;
37781;SDS011;23621;50.878;4.584;2023-05-23T16:52:36;10.45;;;2.83;;
37781;SDS011;23621;50.878;4.584;2023-05-23T16:55:25;6.25;;;3.28;;
37781;SDS011;23621;50.878;4.584;2023-05-23T16:58:12;9.15;;;3.53;;
37781;SDS011;23621;50.878;4.584;2023-05-23T17:00:59;9.10;;;3.28;;
37781;SDS011;23621;50.878;4.584;2023-05-23T17:03:47;10.57;;;3.28;;
37781;SDS011;23621;50.878;4.584;2023-05-23T17:06:34;7.75;;;3.13;;
37781;SDS011;23621;50.878;4.584;2023-05-23T17:09:22;8.90;;;3.30;;
37781;SDS011;23621;50.878;4.584;2023-05-23T17:12:10;8.10;;;3.35;;
37781;SDS011;23621;50.878;4.584;2023-05-23T17:14:58;8.20;;;3.05;;
37781;SDS011;23621;50.878;4.584;2023-05-23T17:17:46;11.00;;;3.45;;
37781;SDS011;23621;50.878;4.584;2023-05-23T17:20:33;6.82;;;2.92;;
37781;SDS011;23621;50.878;4.584;2023-05-23T17:23:21;6.38;;;3.15;;
37781;SDS011;23621;50.878;4.584;2023-05-23T17:26:08;7.65;;;3.10;;
37781;SDS011;23621;50.878;4.584;2023-05-23T17:28:56;7.10;;;3.20;;
37781;SDS011;23621;50.878;4.584;2023-05-23T17:31:44;6.55;;;3.13;;
37781;SDS011;23621;50.878;4.584;2023-05-23T17:34:31;8.02;;;3.20;;
37781;SDS011;23621;50.878;4.584;2023-05-23T17:37:19;8.27;;;3.22;;
37781;SDS011;23621;50.878;4.584;2023-05-23T17:40:06;8.90;;;3.17;;
37781;SDS011;23621;50.878;4.584;2023-05-23T17:42:56;11.18;;;4.30;;
37781;SDS011;23621;50.878;4.584;2023-05-23T17:45:43;14.95;;;3.90;;
37781;SDS011;23621;50.878;4.584;2023-05-23T17:48:31;8.82;;;3.28;;
37781;SDS011;23621;50.878;4.584;2023-05-23T17:51:33;9.15;;;3.40;;
37781;SDS011;23621;50.878;4.584;2023-05-23T17:54:20;11.13;;;3.78;;
37781;SDS011;23621;50.878;4.584;2023-05-23T17:57:08;10.15;;;3.10;;
37781;SDS011;23621;50.878;4.584;2023-05-23T17:59:55;10.15;;;3.25;;
37781;SDS011;23621;50.878;4.584;2023-05-23T18:02:43;12.55;;;3.45;;
37781;SDS011;23621;50.878;4.584;2023-05-23T18:05:30;12.13;;;3.60;;
37781;SDS011;23621;50.878;4.584;2023-05-23T18:08:18;10.20;;;3.03;;
37781;SDS011;23621;50.878;4.584;2023-05-23T18:11:06;12.23;;;3.65;;
37781;SDS011;23621;50.878;4.584;2023-05-23T18:13:53;8.93;;;3.35;;
37781;SDS011;23621;50.878;4.584;2023-05-23T18:16:40;8.45;;;3.10;;
37781;SDS011;23621;50.878;4.584;2023-05-23T18:19:28;6.75;;;2.63;;
37781;SDS011;23621;50.878;4.584;2023-05-23T18:22:16;9.75;;;3.13;;
37781;SDS011;23621;50.878;4.584;2023-05-23T18:25:05;10.50;;;2.90;;
37781;SDS011;23621;50.878;4.584;2023-05-23T18:27:56;13.50;;;3.15;;
37781;SDS011;23621;50.878;4.584;2023-05-23T18:30:45;12.55;;;3.42;;
37781;SDS011;23621;50.878;4.584;2023-05-23T18:33:32;8.07;;;3.28;;
37781;SDS011;23621;50.878;4.584;2023-05-23T18:36:20;10.70;;;3.13;;
37781;SDS011;23621;50.878;4.584;2023-05-23T18:39:07;10.40;;;3.17;;
37781;SDS011;23621;50.878;4.584;2023-05-23T18:41:56;10.05;;;2.97;;
37781;SDS011;23621;50.878;4.584;2023-05-23T18:44:44;7.07;;;2.78;;
37781;SDS011;23621;50.878;4.584;2023-05-23T18:47:32;9.20;;;3.17;;
37781;SDS011;23621;50.878;4.584;2023-05-23T18:50:20;6.80;;;3.00;;
37781;SDS011;23621;50.878;4.584;2023-05-23T18:53:08;10.75;;;3.45;;
37781;SDS011;23621;50.878;4.584;2023-05-23T18:55:56;7.15;;;2.78;;
37781;SDS011;23621;50.878;4.584;2023-05-23T18:58:43;8.43;;;3.10;;
37781;SDS011;23621;50.878;4.584;2023-05-23T19:01:32;9.40;;;3.08;;
37781;SDS011;23621;50.878;4.584;2023-05-23T19:04:20;9.07;;;3.42;;
37781;SDS011;23621;50.878;4.584;2023-05-23T19:07:08;9.00;;;3.28;;
37781;SDS011;23621;50.878;4.584;2023-05-23T19:09:55;10.90;;;2.97;;
37781;SDS011;23621;50.878;4.584;2023-05-23T19:12:42;8.52;;;3.28;;
37781;SDS011;23621;50.878;4.584;2023-05-23T19:15:30;7.85;;;2.92;;
37781;SDS011;23621;50.878;4.584;2023-05-23T19:18:18;8.48;;;3.10;;
37781;SDS011;23621;50.878;4.584;2023-05-23T19:21:05;11.73;;;3.03;;
37781;SDS011;23621;50.878;4.584;2023-05-23T19:23:53;12.00;;;2.92;;
37781;SDS011;23621;50.878;4.584;2023-05-23T19:26:42;10.98;;;3.25;;
37781;SDS011;23621;50.878;4.584;2023-05-23T19:29:29;7.70;;;3.17;;
37781;SDS011;23621;50.878;4.584;2023-05-23T19:32:17;11.07;;;3.25;;
37781;SDS011;23621;50.878;4.584;2023-05-23T19:35:04;11.68;;;2.80;;
37781;SDS011;23621;50.878;4.584;2023-05-23T19:37:52;7.40;;;2.78;;
37781;SDS011;23621;50.878;4.584;2023-05-23T19:40:39;7.55;;;2.95;;
37781;SDS011;23621;50.878;4.584;2023-05-23T19:43:27;7.13;;;2.95;;
37781;SDS011;23621;50.878;4.584;2023-05-23T19:46:15;7.55;;;3.08;;
37781;SDS011;23621;50.878;4.584;2023-05-23T19:49:02;10.23;;;3.33;;
37781;SDS011;23621;50.878;4.584;2023-05-23T19:51:52;9.57;;;3.10;;
37781;SDS011;23621;50.878;4.584;2023-05-23T19:54:39;9.15;;;3.03;;
37781;SDS011;23621;50.878;4.584;2023-05-23T19:57:26;6.93;;;3.13;;
37781;SDS011;23621;50.878;4.584;2023-05-23T20:00:14;6.38;;;2.97;;
37781;SDS011;23621;50.878;4.584;2023-05-23T20:03:02;10.52;;;3.35;;
37781;SDS011;23621;50.878;4.584;2023-05-23T20:05:49;6.78;;;3.00;;
37781;SDS011;23621;50.878;4.584;2023-05-23T20:08:37;7.60;;;2.80;;
37781;SDS011;23621;50.878;4.584;2023-05-23T20:11:24;9.07;;;2.60;;
37781;SDS011;23621;50.878;4.584;2023-05-23T20:14:14;9.23;;;3.08;;
37781;SDS011;23621;50.878;4.584;2023-05-23T20:17:01;11.48;;;3.30;;
37781;SDS011;23621;50.878;4.584;2023-05-23T20:19:48;7.78;;;3.20;;
37781;SDS011;23621;50.878;4.584;2023-05-23T20:22:36;6.78;;;2.67;;
37781;SDS011;23621;50.878;4.584;2023-05-23T20:25:23;9.18;;;3.08;;
37781;SDS011;23621;50.878;4.584;2023-05-23T20:28:14;8.50;;;3.55;;
37781;SDS011;23621;50.878;4.584;2023-05-23T20:31:01;6.45;;;2.90;;
37781;SDS011;23621;50.878;4.584;2023-05-23T20:33:48;8.38;;;3.08;;
37781;SDS011;23621;50.878;4.584;2023-05-23T20:36:37;8.15;;;3.03;;
37781;SDS011;23621;50.878;4.584;2023-05-23T20:39:25;8.50;;;2.97;;
37781;SDS011;23621;50.878;4.584;2023-05-23T20:42:12;7.88;;;3.30;;
37781;SDS011;23621;50.878;4.584;2023-05-23T20:45:04;8.48;;;2.70;;
37781;SDS011;23621;50.878;4.584;2023-05-23T20:47:52;6.88;;;3.00;;
37781;SDS011;23621;50.878;4.584;2023-05-23T20:50:41;11.27;;;3.00;;
37781;SDS011;23621;50.878;4.584;2023-05-23T20:53:30;8.20;;;2.92;;
37781;SDS011;23621;50.878;4.584;2023-05-23T20:56:17;9.35;;;3.47;;
37781;SDS011;23621;50.878;4.584;2023-05-23T20:59:04;11.65;;;3.30;;
37781;SDS011;23621;50.878;4.584;2023-05-23T21:01:52;10.63;;;2.90;;
37781;SDS011;23621;50.878;4.584;2023-05-23T21:04:39;8.70;;;3.42;;
37781;SDS011;23621;50.878;4.584;2023-05-23T21:07:26;15.82;;;3.22;;
37781;SDS011;23621;50.878;4.584;2023-05-23T21:10:14;11.38;;;4.68;;
37781;SDS011;23621;50.878;4.584;2023-05-23T21:13:01;7.80;;;2.72;;
37781;SDS011;23621;50.878;4.584;2023-05-23T21:15:49;8.63;;;4.18;;
37781;SDS011;23621;50.878;4.584;2023-05-23T21:18:36;8.63;;;3.08;;
37781;SDS011;23621;50.878;4.584;2023-05-23T21:21:23;11.07;;;3.45;;
37781;SDS011;23621;50.878;4.584;2023-05-23T21:24:11;11.50;;;3.50;;
37781;SDS011;23621;50.878;4.584;2023-05-23T21:26:59;12.57;;;3.17;;
37781;SDS011;23621;50.878;4.584;2023-05-23T21:29:47;10.07;;;3.20;;
37781;SDS011;23621;50.878;4.584;2023-05-23T21:32:34;14.93;;;4.00;;
37781;SDS011;23621;50.878;4.584;2023-05-23T21:35:22;10.77;;;3.00;;
37781;SDS011;23621;50.878;4.584;2023-05-23T21:38:09;9.52;;;3.30;;
37781;SDS011;23621;50.878;4.584;2023-05-23T21:40:56;10.10;;;3.10;;
37781;SDS011;23621;50.878;4.584;2023-05-23T21:43:44;8.50;;;2.90;;
37781;SDS011;23621;50.878;4.584;2023-05-23T21:46:31;7.90;;;2.80;;
37781;SDS011;23621;50.878;4.584;2023-05-23T21:49:19;11.35;;;2.90;;
37781;SDS011;23621;50.878;4.584;2023-05-23T21:52:06;9.70;;;3.05;;
37781;SDS011;23621;50.878;4.584;2023-05-23T21:54:53;9.63;;;2.83;;
37781;SDS011;23621;50.878;4.584;2023-05-23T21:57:41;11.65;;;3.05;;
37781;SDS011;23621;50.878;4.584;2023-05-23T22:00:28;11.93;;;3.13;;
37781;SDS011;23621;50.878;4.584;2023-05-23T22:03:16;10.18;;;2.80;;
37781;SDS011;23621;50.878;4.584;2023-05-23T22:06:04;7.28;;;2.72;;
37781;SDS011;23621;50.878;4.584;2023-05-23T22:08:51;10.38;;;2.97;;
37781;SDS011;23621;50.878;4.584;2023-05-23T22:11:42;8.27;;;2.92;;
37781;SDS011;23621;50.878;4.584;2023-05-23T22:14:30;8.13;;;2.75;;
37781;SDS011;23621;50.878;4.584;2023-05-23T22:17:17;9.50;;;3.70;;
37781;SDS011;23621;50.878;4.584;2023-05-23T22:20:08;11.52;;;3.42;;
37781;SDS011;23621;50.878;4.584;2023-05-23T22:22:58;9.07;;;3.05;;
37781;SDS011;23621;50.878;4.584;2023-05-23T22:25:47;7.15;;;2.83;;
37781;SDS011;23621;50.878;4.584;2023-05-23T22:28:35;13.15;;;3.13;;
37781;SDS011;23621;50.878;4.584;2023-05-23T22:31:22;7.03;;;2.65;;
37781;SDS011;23621;50.878;4.584;2023-05-23T22:34:10;9.80;;;3.33;;
37781;SDS011;23621;50.878;4.584;2023-05-23T22:36:57;7.57;;;2.92;;
37781;SDS011;23621;50.878;4.584;2023-05-23T22:39:45;12.88;;;3.55;;
37781;SDS011;23621;50.878;4.584;2023-05-23T22:42:33;10.60;;;3.38;;
37781;SDS011;23621;50.878;4.584;2023-05-23T22:45:20;8.55;;;3.05;;
37781;SDS011;23621;50.878;4.584;2023-05-23T22:48:08;8.77;;;2.92;;
37781;SDS011;23621;50.878;4.584;2023-05-23T22:50:55;11.48;;;3.53;;
37781;SDS011;23621;50.878;4.584;2023-05-23T22:53:43;9.40;;;3.05;;
37781;SDS011;23621;50.878;4.584;2023-05-23T22:56:30;11.38;;;2.88;;
37781;SDS011;23621;50.878;4.584;2023-05-23T22:59:17;8.27;;;3.28;;
37781;SDS011;23621;50.878;4.584;2023-05-23T23:02:04;9.43;;;3.00;;
37781;SDS011;23621;50.878;4.584;2023-05-23T23:04:52;8.90;;;3.17;;
37781;SDS011;23621;50.878;4.584;2023-05-23T23:07:39;11.35;;;3.03;;
37781;SDS011;23621;50.878;4.584;2023-05-23T23:10:27;8.30;;;3.03;;
37781;SDS011;23621;50.878;4.584;2023-05-23T23:13:14;9.85;;;3.40;;
37781;SDS011;23621;50.878;4.584;2023-05-23T23:16:01;7.28;;;2.88;;
37781;SDS011;23621;50.878;4.584;2023-05-23T23:18:49;9.50;;;3.10;;
37781;SDS011;23621;50.878;4.584;2023-05-23T23:21:36;9.38;;;3.10;;
37781;SDS011;23621;50.878;4.584;2023-05-23T23:24:24;9.32;;;2.90;;
37781;SDS011;23621;50.878;4.584;2023-05-23T23:27:11;6.90;;;3.10;;
37781;SDS011;23621;50.878;4.584;2023-05-23T23:29:59;8.50;;;3.60;;
37781;SDS011;23621;50.878;4.584;2023-05-23T23:32:46;7.82;;;3.28;;
37781;SDS011;23621;50.878;4.584;2023-05-23T23:35:34;9.23;;;2.90;;
37781;SDS011;23621;50.878;4.584;2023-05-23T23:38:21;13.10;;;3.35;;
37781;SDS011;23621;50.878;4.584;2023-05-23T23:41:09;7.07;;;3.10;;
37781;SDS011;23621;50.878;4.584;2023-05-23T23:43:56;10.50;;;2.92;;
37781;SDS011;23621;50.878;4.584;2023-05-23T23:46:43;9.43;;;3.05;;
37781;SDS011;23621;50.878;4.584;2023-05-23T23:49:31;8.10;;;2.90;;
37781;SDS011;23621;50.878;4.584;2023-05-23T23:52:18;10.48;;;3.22;;
37781;SDS011;23621;50.878;4.584;2023-05-23T23:55:06;7.78;;;3.60;;
37781;SDS011;23621;50.878;4.584;2023-05-23T23:57:53;9.00;;;3.38;;
